createdAt,value
2022-11-18T00:01:31.648Z,97848.00
2022-11-18T00:03:59.713Z,97847.00
2022-11-18T00:06:30.326Z,97850.00
2022-11-18T00:09:01.671Z,97854.00
2022-11-18T00:11:48.746Z,97838.00
2022-11-18T00:14:20.330Z,97851.00
2022-11-18T00:16:53.373Z,97859.00
2022-11-18T00:19:25.228Z,97862.00
2022-11-18T00:21:53.862Z,97861.00
2022-11-18T00:24:25.101Z,97855.00
2022-11-18T00:26:54.313Z,97861.00
2022-11-18T00:29:26.292Z,97866.00
2022-11-18T00:31:54.936Z,97864.00
2022-11-18T00:34:23.828Z,97864.00
2022-11-18T00:36:52.086Z,97866.00
2022-11-18T00:39:21.931Z,97865.00
2022-11-18T00:42:09.382Z,97855.00
2022-11-18T00:44:38.058Z,97861.00
2022-11-18T00:47:07.333Z,97853.00
2022-11-18T00:49:35.520Z,97863.00
2022-11-18T00:52:04.640Z,97861.00
2022-11-18T00:54:34.284Z,97861.00
2022-11-18T00:57:05.255Z,97872.00
2022-11-18T00:59:33.600Z,97867.00
2022-11-18T01:02:01.634Z,97864.00
2022-11-18T01:04:29.918Z,97873.00
2022-11-18T01:06:58.072Z,97881.00
2022-11-18T01:09:26.192Z,97870.00
2022-11-18T01:13:09.096Z,97862.00
2022-11-18T01:15:41.957Z,97861.00
2022-11-18T01:18:10.187Z,97867.00
2022-11-18T01:20:39.267Z,97864.00
2022-11-18T01:23:07.356Z,97864.00
2022-11-18T01:25:37.987Z,97860.00
2022-11-18T01:28:06.531Z,97866.00
2022-11-18T01:30:35.752Z,97864.00
2022-11-18T01:33:06.407Z,97864.00
2022-11-18T01:35:36.599Z,97860.00
2022-11-18T01:38:05.019Z,97860.00
2022-11-18T01:40:34.503Z,97868.00
2022-11-18T01:43:02.872Z,97868.00
2022-11-18T01:45:35.711Z,97862.00
2022-11-18T01:48:10.254Z,97856.00
2022-11-18T01:50:43.489Z,97852.00
2022-11-18T01:53:18.199Z,97857.00
2022-11-18T01:55:50.158Z,97846.00
2022-11-18T01:58:24.974Z,97844.00
2022-11-18T02:00:53.896Z,97850.00
2022-11-18T02:03:24.277Z,97854.00
2022-11-18T02:05:55.837Z,97856.00
2022-11-18T02:08:24.659Z,97858.00
2022-11-18T02:10:52.697Z,97859.00
2022-11-18T02:13:20.852Z,97861.00
2022-11-18T02:15:59.197Z,97858.00
2022-11-18T02:18:43.117Z,97861.00
2022-11-18T02:21:26.156Z,97865.00
2022-11-18T02:24:29.412Z,97867.00
2022-11-18T02:27:46.883Z,97860.00
2022-11-18T02:30:19.629Z,97862.00
2022-11-18T02:32:55.923Z,97852.00
2022-11-18T02:35:30.721Z,97858.00
2022-11-18T02:38:05.556Z,97847.00
2022-11-18T02:40:39.185Z,97855.00
2022-11-18T02:43:13.639Z,97852.00
2022-11-18T02:45:49.381Z,97849.00
2022-11-18T02:48:21.581Z,97846.00
2022-11-18T02:50:52.937Z,97845.00
2022-11-18T02:53:24.259Z,97850.00
2022-11-18T02:55:55.290Z,97844.00
2022-11-18T02:58:26.290Z,97853.00
2022-11-18T03:00:57.491Z,97866.00
2022-11-18T03:03:30.655Z,97863.00
2022-11-18T03:06:10.433Z,97856.00
2022-11-18T03:08:46.917Z,97851.00
2022-11-18T03:11:21.331Z,97851.00
2022-11-18T03:14:08.868Z,97849.00
2022-11-18T03:16:46.154Z,97850.00
2022-11-18T03:19:22.753Z,97863.00
2022-11-18T03:22:03.323Z,97865.00
2022-11-18T03:24:34.908Z,97862.00
2022-11-18T03:27:12.860Z,97860.00
2022-11-18T03:29:49.097Z,97859.00
2022-11-18T03:32:25.365Z,97858.00
2022-11-18T03:34:59.041Z,97862.00
2022-11-18T03:37:29.578Z,97866.00
2022-11-18T03:40:05.863Z,97867.00
2022-11-18T03:42:41.623Z,97877.00
2022-11-18T03:45:17.065Z,97877.00
2022-11-18T03:47:53.977Z,97871.00
2022-11-18T03:50:28.658Z,97878.00
2022-11-18T03:52:57.622Z,97884.00
2022-11-18T03:55:31.889Z,97892.00
2022-11-18T03:58:08.276Z,97901.00
2022-11-18T04:00:44.050Z,97897.00
2022-11-18T04:03:14.298Z,97904.00
2022-11-18T04:05:44.909Z,97910.00
2022-11-18T04:08:22.161Z,97907.00
2022-11-18T04:11:02.988Z,97916.00
2022-11-18T04:13:36.278Z,97911.00
2022-11-18T04:16:05.178Z,97916.00
2022-11-18T04:18:34.506Z,97918.00
2022-11-18T04:21:02.529Z,97922.00
2022-11-18T04:23:30.509Z,97923.00
2022-11-18T04:25:58.517Z,97920.00
2022-11-18T04:28:26.522Z,97929.00
2022-11-18T04:30:54.522Z,97929.00
2022-11-18T04:33:22.505Z,97926.00
2022-11-18T04:35:51.849Z,97924.00
2022-11-18T04:38:22.082Z,97933.00
2022-11-18T04:40:50.268Z,97929.00
2022-11-18T04:43:18.232Z,97935.00
2022-11-18T04:45:46.348Z,97931.00
2022-11-18T04:48:14.352Z,97932.00
2022-11-18T04:50:42.409Z,97936.00
2022-11-18T04:53:11.772Z,97927.00
2022-11-18T04:55:39.777Z,97933.00
2022-11-18T04:58:07.859Z,97933.00
2022-11-18T05:00:35.892Z,97926.00
2022-11-18T05:03:03.951Z,97931.00
2022-11-18T05:05:31.938Z,97938.00
2022-11-18T05:07:59.936Z,97941.00
2022-11-18T05:10:29.291Z,97955.00
2022-11-18T05:12:56.310Z,97949.00
2022-11-18T05:15:24.794Z,97941.00
2022-11-18T05:17:52.945Z,97950.00
2022-11-18T05:20:21.460Z,97957.00
2022-11-18T05:22:49.452Z,97963.00
2022-11-18T05:25:17.689Z,97962.00
2022-11-18T05:27:47.017Z,97960.00
2022-11-18T05:30:15.532Z,97964.00
2022-11-18T05:32:43.502Z,97963.00
2022-11-18T05:35:11.533Z,97962.00
2022-11-18T05:37:39.503Z,97966.00
2022-11-18T05:40:09.971Z,97977.00
2022-11-18T05:42:55.696Z,97976.00
2022-11-18T05:45:25.060Z,97988.00
2022-11-18T05:48:03.995Z,97984.00
2022-11-18T05:50:33.229Z,97995.00
2022-11-18T05:53:01.871Z,97996.00
2022-11-18T05:55:38.257Z,98001.00
2022-11-18T05:58:06.256Z,98003.00
2022-11-18T06:00:35.699Z,98002.00
2022-11-18T06:03:10.283Z,98010.00
2022-11-18T06:05:39.182Z,98009.00
2022-11-18T06:08:09.641Z,98021.00
2022-11-18T06:10:42.471Z,98014.00
2022-11-18T06:13:18.873Z,98003.00
2022-11-18T06:15:49.087Z,98022.00
2022-11-18T06:18:24.957Z,98023.00
2022-11-18T06:20:57.288Z,98028.00
2022-11-18T06:23:25.396Z,98023.00
2022-11-18T06:25:54.130Z,98017.00
2022-11-18T06:28:24.042Z,98011.00
2022-11-18T06:30:53.534Z,98023.00
2022-11-18T06:33:21.550Z,98028.00
2022-11-18T06:35:49.553Z,98030.00
2022-11-18T06:38:17.520Z,98028.00
2022-11-18T06:40:45.841Z,98031.00
2022-11-18T06:43:31.658Z,98031.00
2022-11-18T06:46:19.585Z,98047.00
2022-11-18T06:48:48.038Z,98046.00
2022-11-18T06:51:16.369Z,98051.00
2022-11-18T06:53:44.904Z,98049.00
2022-11-18T06:56:15.283Z,98049.00
2022-11-18T06:58:43.302Z,98063.00
2022-11-18T07:01:15.452Z,98063.00
2022-11-18T07:03:45.542Z,98060.00
2022-11-18T07:06:15.881Z,98066.00
2022-11-18T07:08:44.857Z,98066.00
2022-11-18T07:11:15.436Z,98063.00
2022-11-18T07:13:44.229Z,98074.00
2022-11-18T07:16:16.924Z,98067.00
2022-11-18T07:18:46.876Z,98081.00
2022-11-18T07:21:17.986Z,98082.00
2022-11-18T07:23:46.955Z,98091.00
2022-11-18T07:26:15.976Z,98086.00
2022-11-18T07:28:44.852Z,98082.00
2022-11-18T07:31:16.487Z,98100.00
2022-11-18T07:33:46.552Z,98099.00
2022-11-18T07:36:17.604Z,98106.00
2022-11-18T07:38:46.135Z,98095.00
2022-11-18T07:41:17.273Z,98091.00
2022-11-18T07:43:46.046Z,98085.00
2022-11-18T07:46:18.395Z,98104.00
2022-11-18T07:48:48.440Z,98120.00
2022-11-18T07:51:18.496Z,98109.00
2022-11-18T07:53:47.051Z,98101.00
2022-11-18T07:56:16.018Z,98104.00
2022-11-18T07:58:45.187Z,98119.00
2022-11-18T08:01:17.860Z,98108.00
2022-11-18T08:03:47.502Z,98114.00
2022-11-18T08:06:18.001Z,98114.00
2022-11-18T08:08:46.950Z,98129.00
2022-11-18T08:11:22.358Z,98127.00
2022-11-18T08:13:52.059Z,98128.00
2022-11-18T08:16:24.920Z,98124.00
2022-11-18T08:18:53.529Z,98132.00
2022-11-18T08:21:23.757Z,98145.00
2022-11-18T08:23:53.725Z,98120.00
2022-11-18T08:26:22.812Z,98131.00
2022-11-18T08:28:50.974Z,98141.00
2022-11-18T08:31:22.729Z,98131.00
2022-11-18T08:33:54.849Z,98142.00
2022-11-18T08:36:26.733Z,98142.00
2022-11-18T08:38:56.821Z,98154.00
2022-11-18T08:41:32.850Z,98153.00
2022-11-18T08:44:01.733Z,98145.00
2022-11-18T08:46:31.566Z,98146.00
2022-11-18T08:49:00.379Z,98156.00
2022-11-18T08:51:29.040Z,98171.00
2022-11-18T08:53:57.734Z,98163.00
2022-11-18T08:56:26.547Z,98157.00
2022-11-18T08:58:55.166Z,98164.00
2022-11-18T09:01:23.966Z,98170.00
2022-11-18T09:03:53.416Z,98170.00
2022-11-18T09:06:24.688Z,98161.00
2022-11-18T09:08:53.443Z,98153.00
2022-11-18T09:11:23.925Z,98161.00
2022-11-18T09:16:42.857Z,98179.00
2022-11-18T09:19:45.152Z,98180.00
2022-11-18T09:22:00.508Z,98188.00
2022-11-18T09:24:28.571Z,98193.00
2022-11-18T09:26:56.659Z,98203.00
2022-11-18T09:29:26.143Z,98208.00
2022-11-18T09:31:54.436Z,98220.00
2022-11-18T09:34:24.361Z,98222.00
2022-11-18T09:36:55.781Z,98229.00
2022-11-18T09:39:24.782Z,98225.00
2022-11-18T09:42:07.621Z,98234.00
2022-11-18T09:45:12.915Z,98226.00
2022-11-18T09:47:42.102Z,98230.00
2022-11-18T09:53:18.791Z,98227.00
2022-11-18T09:55:48.645Z,98227.00
2022-11-18T09:58:23.358Z,98239.00
2022-11-18T10:00:51.353Z,98238.00
2022-11-18T10:03:31.073Z,98232.00
2022-11-18T10:06:12.168Z,98244.00
2022-11-18T10:08:49.223Z,98224.00
2022-11-18T10:11:21.571Z,98240.00
2022-11-18T10:14:02.188Z,98246.00
2022-11-18T10:16:44.704Z,98241.00
2022-11-18T10:19:29.422Z,98258.00
2022-11-18T10:22:24.104Z,98263.00
2022-11-18T10:24:55.820Z,98255.00
2022-11-18T10:27:34.620Z,98263.00
2022-11-18T10:30:02.901Z,98262.00
2022-11-18T10:32:30.935Z,98273.00
2022-11-18T10:35:00.160Z,98271.00
2022-11-18T10:38:00.324Z,98281.00
2022-11-18T10:40:28.611Z,98272.00
2022-11-18T10:42:57.633Z,98286.00
2022-11-18T10:45:29.970Z,98282.00
2022-11-18T10:48:01.504Z,98292.00
2022-11-18T10:50:35.030Z,98299.00
2022-11-18T10:53:06.101Z,98308.00
2022-11-18T10:55:34.979Z,98305.00
2022-11-18T10:58:10.908Z,98309.00
2022-11-18T11:00:46.699Z,98328.00
2022-11-18T11:03:34.263Z,98324.00
2022-11-18T11:06:30.216Z,98330.00
2022-11-18T11:09:06.717Z,98324.00
2022-11-18T11:11:37.468Z,98335.00
2022-11-18T11:14:22.681Z,98332.00
2022-11-18T11:17:03.287Z,98328.00
2022-11-18T11:19:49.088Z,98333.00
2022-11-18T11:22:17.940Z,98331.00
2022-11-18T11:24:48.400Z,98324.00
2022-11-18T11:30:25.711Z,98344.00
2022-11-18T11:33:34.237Z,98346.00
2022-11-18T11:36:17.571Z,98335.00
2022-11-18T11:39:04.775Z,98333.00
2022-11-18T11:41:48.911Z,98338.00
2022-11-18T11:44:36.999Z,98346.00
2022-11-18T11:47:42.321Z,98341.00
2022-11-18T11:50:20.171Z,98344.00
2022-11-18T11:53:09.354Z,98349.00
2022-11-18T11:55:53.901Z,98350.00
2022-11-18T11:58:49.080Z,98350.00
2022-11-18T12:01:28.393Z,98355.00
2022-11-18T12:04:06.818Z,98355.00
2022-11-18T12:06:34.961Z,98355.00
2022-11-18T12:09:14.107Z,98357.00
2022-11-18T12:11:50.777Z,98358.00
2022-11-18T12:14:39.805Z,98364.00
2022-11-18T12:17:18.838Z,98359.00
2022-11-18T12:19:46.844Z,98371.00
2022-11-18T12:22:14.854Z,98367.00
2022-11-18T12:24:43.934Z,98372.00
2022-11-18T12:27:16.055Z,98377.00
2022-11-18T12:29:59.772Z,98384.00
2022-11-18T12:32:34.694Z,98383.00
2022-11-18T12:35:21.950Z,98392.00
2022-11-18T12:38:02.698Z,98385.00
2022-11-18T12:40:48.784Z,98389.00
2022-11-18T12:44:07.120Z,98395.00
2022-11-18T12:46:55.398Z,98396.00
2022-11-18T12:50:13.310Z,98396.00
2022-11-18T12:52:54.988Z,98400.00
2022-11-18T12:55:32.566Z,98409.00
2022-11-18T12:58:00.859Z,98402.00
2022-11-18T13:03:42.606Z,98421.00
2022-11-18T13:06:26.838Z,98415.00
2022-11-18T13:08:59.589Z,98417.00
2022-11-18T13:11:45.944Z,98425.00
2022-11-18T13:14:36.619Z,98418.00
2022-11-18T13:17:42.088Z,98417.00
2022-11-18T13:20:23.981Z,98429.00
2022-11-18T13:23:11.393Z,98434.00
2022-11-18T13:25:40.594Z,98439.00
2022-11-18T13:28:24.544Z,98435.00
2022-11-18T13:31:00.575Z,98444.00
2022-11-18T13:33:28.701Z,98456.00
2022-11-18T13:35:58.075Z,98453.00
2022-11-18T13:38:28.613Z,98448.00
2022-11-18T13:41:08.115Z,98466.00
2022-11-18T13:43:36.936Z,98464.00
2022-11-18T13:46:11.049Z,98470.00
2022-11-18T13:48:50.091Z,98469.00
2022-11-18T13:51:19.682Z,98478.00
2022-11-18T13:53:48.638Z,98482.00
2022-11-18T13:56:23.941Z,98492.00
2022-11-18T14:01:53.896Z,98490.00
2022-11-18T14:04:24.672Z,98491.00
2022-11-18T14:06:54.618Z,98487.00
2022-11-18T14:09:27.549Z,98485.00
2022-11-18T14:12:02.716Z,98494.00
2022-11-18T14:14:34.104Z,98496.00
2022-11-18T14:17:18.897Z,98492.00
2022-11-18T14:19:48.241Z,98493.00
2022-11-18T14:22:21.089Z,98504.00
2022-11-18T14:24:57.675Z,98498.00
2022-11-18T14:27:41.403Z,98508.00
2022-11-18T14:30:35.984Z,98516.00
2022-11-18T14:33:20.514Z,98518.00
2022-11-18T14:35:56.361Z,98516.00
2022-11-18T14:41:45.077Z,98544.00
2022-11-18T14:44:14.272Z,98540.00
2022-11-18T14:46:45.591Z,98550.00
2022-11-18T14:49:18.246Z,98553.00
2022-11-18T14:51:47.335Z,98545.00
2022-11-18T14:54:25.543Z,98543.00
2022-11-18T14:56:58.491Z,98551.00
2022-11-18T14:59:26.640Z,98568.00
2022-11-18T15:01:54.808Z,98567.00
2022-11-18T15:04:23.037Z,98561.00
2022-11-18T15:06:51.041Z,98581.00
2022-11-18T15:09:20.503Z,98580.00
2022-11-18T15:11:48.612Z,98576.00
2022-11-18T15:14:17.125Z,98576.00
2022-11-18T15:16:45.401Z,98578.00
2022-11-18T15:19:16.604Z,98573.00
2022-11-18T15:21:45.326Z,98582.00
2022-11-18T15:24:13.497Z,98585.00
2022-11-18T15:26:46.245Z,98583.00
2022-11-18T15:29:19.301Z,98590.00
2022-11-18T15:31:47.873Z,98594.00
2022-11-18T15:34:16.359Z,98603.00
2022-11-18T15:36:44.344Z,98610.00
2022-11-18T15:39:13.040Z,98612.00
2022-11-18T15:41:43.875Z,98602.00
2022-11-18T15:44:13.086Z,98615.00
2022-11-18T15:46:41.951Z,98627.00
2022-11-18T15:49:16.389Z,98637.00
2022-11-18T15:51:44.502Z,98633.00
2022-11-18T15:54:12.480Z,98647.00
2022-11-18T15:56:42.153Z,98649.00
2022-11-18T15:59:13.440Z,98653.00
2022-11-18T16:01:43.718Z,98651.00
2022-11-18T16:04:14.350Z,98651.00
2022-11-18T16:06:44.117Z,98651.00
2022-11-18T16:09:13.846Z,98647.00
2022-11-18T16:12:01.567Z,98645.00
2022-11-18T16:14:29.793Z,98644.00
2022-11-18T16:16:58.682Z,98633.00
2022-11-18T16:19:31.338Z,98645.00
2022-11-18T16:21:59.467Z,98649.00
2022-11-18T16:24:30.016Z,98651.00
2022-11-18T16:26:59.348Z,98645.00
2022-11-18T16:29:27.390Z,98656.00
2022-11-18T16:31:54.981Z,98668.00
2022-11-18T16:34:25.760Z,98666.00
2022-11-18T16:36:56.865Z,98676.00
2022-11-18T16:39:27.499Z,98676.00
2022-11-18T16:42:03.892Z,98680.00
2022-11-18T16:44:37.004Z,98677.00
2022-11-18T16:47:13.729Z,98678.00
2022-11-18T16:49:43.929Z,98680.00
2022-11-18T16:52:12.045Z,98688.00
2022-11-18T16:54:45.377Z,98676.00
2022-11-18T16:57:14.444Z,98688.00
2022-11-18T16:59:43.889Z,98696.00
2022-11-18T17:02:14.301Z,98706.00
2022-11-18T17:04:42.752Z,98712.00
2022-11-18T17:07:10.859Z,98720.00
2022-11-18T17:09:39.097Z,98727.00
2022-11-18T17:12:08.180Z,98730.00
2022-11-18T17:14:38.124Z,98717.00
2022-11-18T17:17:08.113Z,98711.00
2022-11-18T17:19:36.571Z,98720.00
2022-11-18T17:22:04.772Z,98722.00
2022-11-18T17:24:32.807Z,98735.00
2022-11-18T17:27:00.842Z,98738.00
2022-11-18T17:29:29.728Z,98734.00
2022-11-18T17:31:57.753Z,98732.00
2022-11-18T17:34:27.196Z,98733.00
2022-11-18T17:36:55.196Z,98730.00
2022-11-18T17:39:23.301Z,98742.00
2022-11-18T17:42:08.919Z,98749.00
2022-11-18T17:44:36.950Z,98753.00
2022-11-18T17:47:05.300Z,98754.00
2022-11-18T17:49:34.688Z,98754.00
2022-11-18T17:52:02.755Z,98746.00
2022-11-18T17:54:30.756Z,98750.00
2022-11-18T17:56:58.758Z,98741.00
2022-11-18T17:59:26.815Z,98772.00
2022-11-18T18:01:59.247Z,98755.00
2022-11-18T18:04:28.160Z,98767.00
2022-11-18T18:06:57.659Z,98773.00
2022-11-18T18:09:30.618Z,98769.00
2022-11-18T18:12:00.529Z,98791.00
2022-11-18T18:14:27.725Z,98787.00
2022-11-18T18:16:55.755Z,98791.00
2022-11-18T18:19:24.788Z,98802.00
2022-11-18T18:21:53.714Z,98804.00
2022-11-18T18:24:24.028Z,98806.00
2022-11-18T18:26:52.029Z,98799.00
2022-11-18T18:29:20.181Z,98796.00
2022-11-18T18:31:48.268Z,98795.00
2022-11-18T18:34:17.074Z,98798.00
2022-11-18T18:36:45.841Z,98809.00
2022-11-18T18:39:14.031Z,98822.00
2022-11-18T18:41:43.348Z,98829.00
2022-11-18T18:44:15.370Z,98822.00
2022-11-18T18:46:45.638Z,98817.00
2022-11-18T18:49:20.183Z,98814.00
2022-11-18T18:51:50.039Z,98818.00
2022-11-18T18:54:23.094Z,98824.00
2022-11-18T18:56:53.356Z,98832.00
2022-11-18T18:59:21.387Z,98826.00
2022-11-18T19:01:49.611Z,98834.00
2022-11-18T19:04:18.093Z,98831.00
2022-11-18T19:06:54.895Z,98808.00
2022-11-18T19:09:27.038Z,98811.00
2022-11-18T19:12:14.504Z,98822.00
2022-11-18T19:14:43.065Z,98821.00
2022-11-18T19:17:12.710Z,98824.00
2022-11-18T19:20:00.279Z,98821.00
2022-11-18T19:22:31.988Z,98829.00
2022-11-18T19:27:50.560Z,98834.00
2022-11-18T19:30:19.020Z,98850.00
2022-11-18T19:32:47.352Z,98857.00
2022-11-18T19:35:15.707Z,98849.00
2022-11-18T19:37:43.715Z,98841.00
2022-11-18T19:40:12.817Z,98849.00
2022-11-18T19:42:42.313Z,98860.00
2022-11-18T19:45:12.893Z,98863.00
2022-11-18T19:47:41.000Z,98878.00
2022-11-18T19:50:10.389Z,98873.00
2022-11-18T19:52:38.403Z,98868.00
2022-11-18T19:55:07.965Z,98869.00
2022-11-18T19:57:36.106Z,98867.00
2022-11-18T20:00:05.629Z,98875.00
2022-11-18T20:02:39.515Z,98883.00
2022-11-18T20:05:26.268Z,98878.00
2022-11-18T20:07:56.325Z,98875.00
2022-11-18T20:10:24.693Z,98876.00
2022-11-18T20:12:52.780Z,98888.00
2022-11-18T20:15:20.780Z,98896.00
2022-11-18T20:17:50.173Z,98890.00
2022-11-18T20:20:18.241Z,98895.00
2022-11-18T20:22:46.430Z,98901.00
2022-11-18T20:25:15.531Z,98908.00
2022-11-18T20:27:43.570Z,98906.00
2022-11-18T20:30:13.187Z,98905.00
2022-11-18T20:32:41.191Z,98908.00
2022-11-18T20:35:10.830Z,98907.00
2022-11-18T20:37:38.932Z,98900.00
2022-11-18T20:40:08.662Z,98897.00
2022-11-18T20:42:54.131Z,98899.00
2022-11-18T20:45:22.483Z,98909.00
2022-11-18T20:47:50.778Z,98907.00
2022-11-18T20:50:20.177Z,98901.00
2022-11-18T20:52:48.222Z,98908.00
2022-11-18T20:55:19.060Z,98920.00
2022-11-18T20:57:47.095Z,98924.00
2022-11-18T21:00:16.612Z,98918.00
2022-11-18T21:02:44.619Z,98913.00
2022-11-18T21:05:12.651Z,98918.00
2022-11-18T21:07:42.029Z,98912.00
2022-11-18T21:10:10.680Z,98908.00
2022-11-18T21:12:59.624Z,98913.00
2022-11-18T21:15:26.686Z,98918.00
2022-11-18T21:17:54.745Z,98916.00
2022-11-18T21:20:40.352Z,98914.00
2022-11-18T21:23:09.804Z,98917.00
2022-11-18T21:25:37.816Z,98908.00
2022-11-18T21:28:06.141Z,98926.00
2022-11-18T21:30:34.147Z,98928.00
2022-11-18T21:33:02.178Z,98914.00
2022-11-18T21:35:32.413Z,98915.00
2022-11-18T21:38:00.708Z,98925.00
2022-11-18T21:40:30.060Z,98928.00
2022-11-18T21:42:58.061Z,98936.00
2022-11-18T21:45:26.070Z,98932.00
2022-11-18T21:47:54.093Z,98935.00
2022-11-18T21:50:24.268Z,98938.00
2022-11-18T21:52:52.304Z,98936.00
2022-11-18T21:55:21.500Z,98947.00
2022-11-18T21:57:50.850Z,98940.00
2022-11-18T22:00:19.531Z,98939.00
2022-11-18T22:02:47.512Z,98955.00
2022-11-18T22:05:15.679Z,98960.00
2022-11-18T22:07:43.706Z,98961.00
2022-11-18T22:10:11.705Z,98954.00
2022-11-18T22:12:39.711Z,98949.00
2022-11-18T22:15:11.201Z,98958.00
2022-11-18T22:17:39.266Z,98960.00
2022-11-18T22:20:08.974Z,98967.00
2022-11-18T22:22:37.010Z,98970.00
2022-11-18T22:25:05.888Z,98983.00
2022-11-18T22:27:33.904Z,98986.00
2022-11-18T22:30:02.229Z,98983.00
2022-11-18T22:32:31.533Z,98977.00
2022-11-18T22:34:59.528Z,98985.00
2022-11-18T22:37:27.520Z,98978.00
2022-11-18T22:39:55.536Z,98986.00
2022-11-18T22:42:41.333Z,98989.00
2022-11-18T22:45:10.362Z,98985.00
2022-11-18T22:47:39.760Z,98985.00
2022-11-18T22:50:08.544Z,98988.00
2022-11-18T22:52:36.775Z,98993.00
2022-11-18T22:55:05.521Z,98996.00
2022-11-18T22:57:37.046Z,98994.00
2022-11-18T23:00:07.749Z,98999.00
2022-11-18T23:02:35.803Z,99015.00
2022-11-18T23:05:07.226Z,99005.00
2022-11-18T23:07:36.306Z,99012.00
2022-11-18T23:10:05.299Z,99008.00
2022-11-18T23:12:50.287Z,99026.00
2022-11-18T23:15:18.433Z,99013.00
2022-11-18T23:17:46.457Z,99016.00
2022-11-18T23:20:16.478Z,99025.00
2022-11-18T23:22:44.493Z,99025.00
2022-11-18T23:25:12.504Z,99030.00
2022-11-18T23:27:40.680Z,99024.00
2022-11-18T23:30:10.240Z,99032.00
2022-11-18T23:32:38.217Z,99037.00
2022-11-18T23:35:07.062Z,99033.00
2022-11-18T23:37:36.381Z,99034.00
2022-11-18T23:40:05.062Z,99038.00
2022-11-18T23:42:33.221Z,99038.00
2022-11-18T23:45:05.301Z,99053.00
2022-11-18T23:47:33.689Z,99050.00
2022-11-18T23:50:01.935Z,99042.00
2022-11-18T23:52:30.137Z,99049.00
2022-11-18T23:55:01.341Z,99057.00
2022-11-18T23:57:29.385Z,99050.00
2022-11-18T23:59:57.874Z,99062.00
